createdAt,value
2022-12-24T00:02:36.431Z,7.26
2022-12-24T00:05:41.619Z,7.20
2022-12-24T00:08:45.854Z,7.13
2022-12-24T00:11:49.606Z,7.18
2022-12-24T00:14:54.151Z,7.38
2022-12-24T00:18:00.250Z,7.31
2022-12-24T00:21:04.377Z,7.17
2022-12-24T00:24:09.021Z,7.04
2022-12-24T00:27:12.618Z,7.03
2022-12-24T00:30:17.810Z,6.80
2022-12-24T00:33:24.625Z,6.79
2022-12-24T00:36:29.081Z,6.88
2022-12-24T00:39:33.220Z,6.96
2022-12-24T00:42:36.473Z,7.00
2022-12-24T00:45:39.182Z,7.10
2022-12-24T00:48:42.690Z,7.18
2022-12-24T00:51:46.220Z,7.26
2022-12-24T00:54:49.116Z,7.27
2022-12-24T00:57:53.115Z,7.24
2022-12-24T01:00:56.272Z,7.35
2022-12-24T01:04:18.754Z,7.34
2022-12-24T01:07:21.799Z,7.36
2022-12-24T01:10:24.761Z,7.33
2022-12-24T01:13:27.816Z,7.31
2022-12-24T01:16:30.569Z,7.26
2022-12-24T01:19:34.766Z,7.25
2022-12-24T01:22:37.717Z,7.23
2022-12-24T01:25:40.757Z,7.34
2022-12-24T01:28:43.872Z,7.34
2022-12-24T01:31:47.168Z,7.35
2022-12-24T01:34:49.906Z,7.28
2022-12-24T01:37:53.032Z,7.38
2022-12-24T01:41:14.562Z,7.40
2022-12-24T01:44:40.609Z,7.46
2022-12-24T01:47:43.426Z,7.54
2022-12-24T01:50:47.272Z,7.52
2022-12-24T01:53:57.932Z,7.50
2022-12-24T01:57:17.460Z,7.44
2022-12-24T02:00:20.779Z,7.48
2022-12-24T02:03:23.830Z,7.56
2022-12-24T02:06:27.546Z,7.49
2022-12-24T02:09:30.929Z,7.50
2022-12-24T02:12:36.378Z,7.56
2022-12-24T02:16:17.484Z,7.64
2022-12-24T02:19:30.392Z,7.62
2022-12-24T02:23:06.505Z,7.67
2022-12-24T02:26:42.483Z,7.70
2022-12-24T02:30:00.372Z,7.71
2022-12-24T02:33:03.111Z,7.70
2022-12-24T02:36:24.538Z,7.74
2022-12-24T02:39:37.599Z,7.75
2022-12-24T02:42:44.713Z,7.83
2022-12-24T02:45:58.904Z,7.86
2022-12-24T02:49:03.901Z,7.92
2022-12-24T02:52:07.535Z,7.92
2022-12-24T02:55:29.169Z,7.94
2022-12-24T02:58:43.067Z,7.94
2022-12-24T03:02:07.375Z,7.92
2022-12-24T03:05:25.316Z,8.00
2022-12-24T03:08:44.131Z,7.95
2022-12-24T03:12:00.015Z,7.79
2022-12-24T03:15:09.376Z,7.75
2022-12-24T03:18:17.084Z,7.76
2022-12-24T03:21:31.088Z,7.75
2022-12-24T03:24:34.071Z,7.59
2022-12-24T03:27:39.006Z,7.63
2022-12-24T03:30:43.205Z,7.63
2022-12-24T03:33:46.332Z,7.52
2022-12-24T03:36:49.063Z,7.36
2022-12-24T03:39:52.023Z,7.30
2022-12-24T03:42:54.827Z,7.24
2022-12-24T03:45:59.359Z,7.39
2022-12-24T03:49:02.278Z,7.29
2022-12-24T03:52:05.442Z,7.19
2022-12-24T03:55:08.636Z,7.22
2022-12-24T03:58:11.588Z,7.26
2022-12-24T04:01:14.822Z,7.14
2022-12-24T04:04:17.948Z,7.30
2022-12-24T04:07:20.652Z,7.29
2022-12-24T04:10:25.950Z,7.48
2022-12-24T04:13:28.698Z,7.78
2022-12-24T04:16:31.781Z,7.77
2022-12-24T04:19:35.268Z,7.63
2022-12-24T04:22:38.263Z,7.64
2022-12-24T04:25:40.950Z,7.64
2022-12-24T04:28:44.383Z,7.55
2022-12-24T04:31:47.360Z,7.65
2022-12-24T04:34:50.335Z,7.75
2022-12-24T04:37:54.186Z,7.84
2022-12-24T04:41:10.393Z,7.81
2022-12-24T04:44:13.104Z,7.73
2022-12-24T04:47:16.073Z,7.69
2022-12-24T04:50:19.707Z,7.63
2022-12-24T04:53:22.670Z,7.49
2022-12-24T04:56:28.752Z,7.53
2022-12-24T04:59:31.942Z,7.56
2022-12-24T05:02:34.893Z,7.98
2022-12-24T05:05:38.005Z,7.77
2022-12-24T05:08:41.336Z,7.57
2022-12-24T05:11:44.345Z,7.55
2022-12-24T05:14:47.022Z,7.49
2022-12-24T05:17:50.139Z,7.27
2022-12-24T05:20:52.941Z,7.36
2022-12-24T05:24:15.190Z,7.48
2022-12-24T05:27:19.238Z,7.49
2022-12-24T05:30:22.265Z,7.42
2022-12-24T05:33:24.900Z,7.36
2022-12-24T05:36:28.304Z,7.35
2022-12-24T05:39:31.008Z,7.28
2022-12-24T05:42:34.105Z,7.27
2022-12-24T05:45:36.868Z,7.16
2022-12-24T05:48:39.989Z,7.04
2022-12-24T05:51:42.882Z,6.93
2022-12-24T05:54:45.892Z,6.99
2022-12-24T05:57:48.554Z,7.07
2022-12-24T06:00:54.597Z,6.94
2022-12-24T06:03:58.363Z,6.97
2022-12-24T06:07:01.124Z,6.87
2022-12-24T06:10:04.822Z,6.92
2022-12-24T06:13:07.485Z,6.92
2022-12-24T06:16:14.893Z,6.99
2022-12-24T06:19:19.983Z,6.94
2022-12-24T06:22:23.116Z,7.04
2022-12-24T06:25:26.738Z,7.04
2022-12-24T06:28:32.031Z,6.97
2022-12-24T06:31:34.682Z,6.98
2022-12-24T06:34:37.750Z,6.98
2022-12-24T06:37:40.446Z,6.91
2022-12-24T06:40:45.650Z,6.76
2022-12-24T06:43:50.955Z,6.95
2022-12-24T06:46:53.970Z,7.12
2022-12-24T06:49:56.841Z,7.07
2022-12-24T06:52:59.964Z,6.88
2022-12-24T06:56:07.786Z,6.68
2022-12-24T06:59:10.781Z,6.65
2022-12-24T07:02:13.531Z,6.46
2022-12-24T07:05:17.084Z,6.42
2022-12-24T07:08:19.720Z,6.38
2022-12-24T07:11:24.531Z,6.34
2022-12-24T07:14:27.158Z,6.44
2022-12-24T07:17:30.344Z,6.54
2022-12-24T07:20:33.027Z,6.62
2022-12-24T07:23:37.526Z,6.71
2022-12-24T07:26:40.171Z,6.77
2022-12-24T07:29:43.454Z,6.75
2022-12-24T07:32:46.109Z,6.64
2022-12-24T07:35:55.478Z,6.53
2022-12-24T07:39:01.240Z,6.54
2022-12-24T07:42:06.725Z,6.60
2022-12-24T07:45:11.258Z,6.68
2022-12-24T07:48:14.426Z,6.77
2022-12-24T07:51:17.127Z,6.83
2022-12-24T07:54:20.124Z,7.01
2022-12-24T07:57:22.786Z,7.07
2022-12-24T08:00:25.923Z,7.22
2022-12-24T08:03:29.079Z,7.37
2022-12-24T08:06:33.148Z,7.50
2022-12-24T08:09:37.796Z,7.63
2022-12-24T08:12:40.447Z,7.78
2022-12-24T08:15:44.735Z,7.83
2022-12-24T08:18:47.434Z,7.91
2022-12-24T08:21:50.824Z,8.06
2022-12-24T08:24:53.465Z,8.18
2022-12-24T08:27:57.720Z,8.23
2022-12-24T08:31:00.763Z,8.31
2022-12-24T08:34:05.265Z,8.54
2022-12-24T08:37:08.986Z,8.78
2022-12-24T08:40:12.703Z,8.95
2022-12-24T08:43:16.293Z,9.08
2022-12-24T08:46:19.274Z,9.28
2022-12-24T08:49:22.109Z,9.47
2022-12-24T08:52:25.209Z,9.59
2022-12-24T08:55:27.928Z,9.55
2022-12-24T08:58:31.788Z,9.68
2022-12-24T09:01:34.899Z,9.70
2022-12-24T09:04:42.077Z,9.76
2022-12-24T09:07:45.050Z,9.89
2022-12-24T09:10:48.301Z,9.92
2022-12-24T09:13:51.131Z,10.26
2022-12-24T09:16:54.189Z,10.91
2022-12-24T09:19:57.056Z,11.98
2022-12-24T09:23:00.055Z,13.13
2022-12-24T09:26:06.720Z,14.05
2022-12-24T09:29:12.594Z,14.81
2022-12-24T09:32:15.418Z,15.40
2022-12-24T09:35:18.525Z,15.65
2022-12-24T09:38:22.657Z,15.33
2022-12-24T09:41:29.143Z,15.33
2022-12-24T09:44:35.279Z,15.00
2022-12-24T09:47:44.157Z,14.56
2022-12-24T09:51:10.389Z,13.67
2022-12-24T09:54:24.745Z,13.24
2022-12-24T09:57:32.968Z,12.81
2022-12-24T10:00:38.327Z,12.97
2022-12-24T10:03:42.007Z,13.44
2022-12-24T10:07:07.341Z,13.49
2022-12-24T10:10:47.006Z,13.41
2022-12-24T10:14:01.844Z,13.15
2022-12-24T10:17:27.061Z,13.05
2022-12-24T10:20:32.495Z,12.89
2022-12-24T10:23:43.835Z,12.82
2022-12-24T10:26:54.518Z,12.81
2022-12-24T10:30:04.181Z,13.05
2022-12-24T10:33:19.782Z,13.14
2022-12-24T10:36:28.032Z,12.93
2022-12-24T10:39:31.454Z,13.01
2022-12-24T10:42:50.299Z,12.90
2022-12-24T10:46:08.148Z,12.98
2022-12-24T10:49:17.198Z,13.00
2022-12-24T10:52:24.487Z,13.55
2022-12-24T10:55:28.433Z,13.84
2022-12-24T10:58:31.561Z,14.19
2022-12-24T11:01:49.889Z,14.68
2022-12-24T11:04:53.507Z,14.58
2022-12-24T11:08:17.335Z,14.49
2022-12-24T11:11:21.685Z,14.79
2022-12-24T11:14:30.876Z,14.29
2022-12-24T11:17:35.175Z,13.95
2022-12-24T11:20:39.018Z,13.81
2022-12-24T11:23:50.306Z,13.54
2022-12-24T11:26:53.566Z,13.67
2022-12-24T11:30:30.272Z,14.89
2022-12-24T11:33:46.988Z,14.95
2022-12-24T11:36:51.689Z,14.15
2022-12-24T11:39:58.231Z,14.24
2022-12-24T11:43:03.217Z,15.62
2022-12-24T11:46:17.798Z,16.18
2022-12-24T11:49:31.473Z,16.85
2022-12-24T11:52:34.752Z,15.54
2022-12-24T11:55:53.275Z,15.84
2022-12-24T11:59:02.588Z,16.95
2022-12-24T12:02:27.510Z,16.63
2022-12-24T12:05:33.944Z,17.21
2022-12-24T12:08:38.308Z,17.68
2022-12-24T12:11:45.110Z,17.20
2022-12-24T12:15:09.279Z,16.44
2022-12-24T12:18:26.371Z,16.60
2022-12-24T12:21:44.050Z,16.79
2022-12-24T12:24:53.079Z,16.82
2022-12-24T12:27:58.294Z,17.90
2022-12-24T12:31:32.322Z,17.43
2022-12-24T12:34:43.813Z,17.43
2022-12-24T12:37:56.172Z,17.06
2022-12-24T12:41:06.160Z,16.88
2022-12-24T12:44:57.605Z,17.01
2022-12-24T12:48:29.668Z,17.18
2022-12-24T12:51:42.916Z,17.72
2022-12-24T12:55:05.596Z,17.33
2022-12-24T12:58:51.800Z,17.53
2022-12-24T13:02:16.201Z,16.94
2022-12-24T13:05:31.257Z,17.01
2022-12-24T13:08:42.717Z,17.24
2022-12-24T13:12:04.589Z,17.25
2022-12-24T13:15:32.515Z,17.65
2022-12-24T13:18:50.728Z,17.63
2022-12-24T13:21:56.089Z,17.05
2022-12-24T13:24:59.259Z,17.17
2022-12-24T13:28:29.919Z,17.12
2022-12-24T13:31:33.177Z,17.51
2022-12-24T13:34:38.731Z,16.05
2022-12-24T13:37:41.823Z,14.78
2022-12-24T13:40:44.948Z,13.99
2022-12-24T13:44:08.200Z,13.69
2022-12-24T13:47:14.603Z,13.30
2022-12-24T13:50:35.812Z,13.05
2022-12-24T13:53:46.321Z,12.81
2022-12-24T13:56:49.741Z,12.53
2022-12-24T14:00:13.590Z,12.33
2022-12-24T14:03:41.463Z,12.09
2022-12-24T14:06:52.725Z,11.99
2022-12-24T14:09:58.810Z,11.80
2022-12-24T14:13:01.532Z,11.77
2022-12-24T14:16:08.496Z,11.69
2022-12-24T14:19:25.820Z,11.63
2022-12-24T14:22:44.521Z,11.52
2022-12-24T14:25:47.368Z,11.51
2022-12-24T14:29:05.874Z,11.45
2022-12-24T14:32:15.876Z,11.40
2022-12-24T14:35:29.691Z,11.36
2022-12-24T14:38:33.858Z,11.33
2022-12-24T14:42:12.464Z,11.24
2022-12-24T14:45:36.290Z,11.14
2022-12-24T14:48:54.724Z,10.93
2022-12-24T14:52:38.051Z,10.74
2022-12-24T14:55:44.343Z,10.52
2022-12-24T14:58:47.593Z,10.46
2022-12-24T15:01:51.727Z,10.41
2022-12-24T15:05:08.803Z,10.40
2022-12-24T15:08:19.248Z,10.39
2022-12-24T15:11:23.763Z,10.37
2022-12-24T15:14:29.856Z,10.37
2022-12-24T15:17:34.930Z,10.46
2022-12-24T15:20:38.073Z,10.52
2022-12-24T15:23:47.100Z,10.60
2022-12-24T15:26:50.300Z,10.64
2022-12-24T15:29:56.783Z,10.72
2022-12-24T15:33:00.732Z,10.77
2022-12-24T15:36:04.381Z,10.78
2022-12-24T15:39:14.314Z,10.79
2022-12-24T15:42:20.413Z,10.81
2022-12-24T15:45:29.908Z,10.77
2022-12-24T15:48:32.991Z,10.73
2022-12-24T15:51:40.167Z,10.70
2022-12-24T15:54:57.158Z,10.64
2022-12-24T15:58:02.653Z,10.51
2022-12-24T16:01:18.732Z,10.48
2022-12-24T16:04:30.581Z,10.38
2022-12-24T16:07:53.201Z,10.34
2022-12-24T16:11:25.155Z,10.31
2022-12-24T16:14:28.809Z,10.36
2022-12-24T16:17:34.963Z,10.39
2022-12-24T16:20:37.638Z,10.38
2022-12-24T16:23:48.531Z,10.33
2022-12-24T16:26:52.067Z,10.27
2022-12-24T16:29:55.218Z,10.21
2022-12-24T16:32:58.241Z,10.09
2022-12-24T16:36:01.314Z,9.90
2022-12-24T16:39:33.152Z,9.77
2022-12-24T16:42:54.977Z,9.62
2022-12-24T16:46:04.693Z,9.44
2022-12-24T16:49:17.158Z,9.38
2022-12-24T16:52:22.620Z,9.32
2022-12-24T16:55:26.879Z,9.21
2022-12-24T16:58:29.777Z,9.15
2022-12-24T17:01:32.799Z,9.14
2022-12-24T17:04:36.657Z,9.14
2022-12-24T17:07:43.723Z,9.11
2022-12-24T17:10:51.401Z,9.06
2022-12-24T17:13:55.812Z,9.04
2022-12-24T17:16:58.624Z,9.01
2022-12-24T17:20:01.885Z,9.00
2022-12-24T17:23:04.717Z,9.02
2022-12-24T17:26:13.653Z,9.13
2022-12-24T17:29:17.818Z,9.17
2022-12-24T17:32:20.922Z,9.28
2022-12-24T17:35:23.574Z,9.35
2022-12-24T17:38:27.085Z,9.35
2022-12-24T17:41:29.772Z,9.41
2022-12-24T17:44:32.873Z,9.44
2022-12-24T17:47:35.577Z,9.47
2022-12-24T17:50:40.313Z,9.48
2022-12-24T17:53:43.642Z,9.53
2022-12-24T17:56:46.958Z,9.62
2022-12-24T17:59:49.649Z,9.65
2022-12-24T18:02:52.800Z,9.71
2022-12-24T18:06:06.868Z,9.74
2022-12-24T18:09:09.619Z,9.79
2022-12-24T18:12:13.616Z,9.83
2022-12-24T18:15:20.645Z,9.84
2022-12-24T18:18:23.746Z,9.89
2022-12-24T18:21:29.891Z,9.86
2022-12-24T18:24:33.331Z,9.82
2022-12-24T18:27:36.232Z,9.81
2022-12-24T18:30:39.523Z,9.86
2022-12-24T18:33:43.214Z,9.81
2022-12-24T18:36:52.900Z,9.84
2022-12-24T18:39:58.176Z,9.81
2022-12-24T18:43:02.686Z,9.73
2022-12-24T18:46:14.524Z,9.69
2022-12-24T18:49:17.507Z,9.64
2022-12-24T18:52:22.956Z,9.65
2022-12-24T18:55:26.162Z,9.66
2022-12-24T18:58:28.865Z,9.69
2022-12-24T19:01:34.173Z,9.80
2022-12-24T19:04:37.376Z,9.73
2022-12-24T19:07:40.367Z,9.94
2022-12-24T19:10:44.084Z,10.00
2022-12-24T19:13:48.570Z,10.01
2022-12-24T19:16:51.522Z,10.03
2022-12-24T19:19:54.726Z,10.07
2022-12-24T19:22:57.492Z,10.15
2022-12-24T19:26:00.656Z,10.02
2022-12-24T19:29:03.536Z,10.11
2022-12-24T19:32:06.670Z,10.09
2022-12-24T19:35:12.017Z,10.08
2022-12-24T19:38:15.087Z,10.04
2022-12-24T19:41:20.242Z,9.99
2022-12-24T19:44:23.604Z,9.98
2022-12-24T19:47:26.572Z,9.93
2022-12-24T19:50:30.293Z,9.57
2022-12-24T19:53:33.337Z,9.17
2022-12-24T19:56:36.726Z,8.71
2022-12-24T19:59:39.941Z,8.69
2022-12-24T20:02:43.207Z,8.56
2022-12-24T20:05:46.757Z,8.55
2022-12-24T20:08:50.433Z,8.41
2022-12-24T20:11:53.572Z,8.30
2022-12-24T20:14:57.164Z,8.21
2022-12-24T20:18:00.187Z,8.14
2022-12-24T20:21:05.370Z,7.99
2022-12-24T20:24:08.700Z,7.91
2022-12-24T20:27:11.913Z,7.60
2022-12-24T20:30:15.526Z,7.53
2022-12-24T20:33:20.833Z,7.15
2022-12-24T20:36:24.508Z,7.07
2022-12-24T20:39:27.511Z,6.96
2022-12-24T20:42:30.741Z,7.04
2022-12-24T20:45:34.693Z,6.99
2022-12-24T20:48:39.076Z,6.97
2022-12-24T20:51:42.308Z,6.83
2022-12-24T20:54:45.608Z,6.65
2022-12-24T20:57:49.659Z,6.49
2022-12-24T21:00:52.872Z,6.43
2022-12-24T21:03:57.296Z,6.38
2022-12-24T21:07:00.823Z,6.18
2022-12-24T21:10:04.192Z,6.16
2022-12-24T21:13:08.165Z,6.19
2022-12-24T21:16:11.244Z,6.13
2022-12-24T21:19:19.100Z,6.15
2022-12-24T21:22:21.945Z,5.95
2022-12-24T21:25:25.901Z,5.66
2022-12-24T21:28:29.769Z,5.52
2022-12-24T21:31:33.211Z,5.42
2022-12-24T21:34:36.240Z,5.27
2022-12-24T21:37:39.446Z,5.19
2022-12-24T21:44:06.408Z,5.14
2022-12-24T21:47:11.208Z,5.17
2022-12-24T21:50:33.001Z,5.17
2022-12-24T21:53:49.661Z,5.32
2022-12-24T21:57:20.179Z,5.08
2022-12-24T22:00:23.110Z,5.18
2022-12-24T22:03:26.759Z,5.36
2022-12-24T22:06:49.974Z,5.22
2022-12-24T22:10:15.452Z,5.25
2022-12-24T22:13:18.728Z,5.25
2022-12-24T22:16:21.862Z,5.22
2022-12-24T22:19:24.700Z,5.25
2022-12-24T22:22:27.781Z,5.10
2022-12-24T22:25:31.658Z,4.70
2022-12-24T22:28:34.876Z,4.68
2022-12-24T22:31:38.805Z,4.70
2022-12-24T22:34:41.954Z,4.59
2022-12-24T22:37:44.959Z,4.48
2022-12-24T22:40:48.087Z,4.42
2022-12-24T22:43:51.386Z,4.35
2022-12-24T22:46:54.664Z,4.34
2022-12-24T22:49:57.458Z,4.29
2022-12-24T22:53:00.467Z,4.41
2022-12-24T22:56:04.056Z,4.48
2022-12-24T22:59:07.343Z,4.59
2022-12-24T23:02:10.327Z,4.71
2022-12-24T23:05:14.847Z,4.77
2022-12-24T23:08:17.632Z,4.78
2022-12-24T23:11:21.086Z,4.97
2022-12-24T23:14:42.566Z,5.01
2022-12-24T23:17:50.109Z,5.11
2022-12-24T23:20:52.975Z,5.19
2022-12-24T23:27:35.319Z,5.13
2022-12-24T23:30:38.366Z,5.03
2022-12-24T23:33:41.556Z,5.02
2022-12-24T23:36:44.616Z,5.01
2022-12-24T23:39:47.443Z,5.00
2022-12-24T23:42:50.471Z,4.83
2022-12-24T23:45:54.031Z,4.78
2022-12-24T23:48:57.189Z,4.75
2022-12-24T23:51:59.814Z,4.81
2022-12-24T23:55:03.536Z,4.97
2022-12-24T23:58:07.437Z,5.20
